Changping, China
Current Conditions -  °F | °C
As of 9:00 PM on Sunday 23 Nov 2014 (Local Time) from ZBAA Reporting Station
Light Fog Light Fog  
Wind Chill: 34°   Ceiling: Unl
Heat Index: 34°   Visibility: 1.6mi
Dew Point: 32°   Wind: 2mph
Humidity: 93%   Direction: 90°E
Pressure: 30.33"   Gusts: NA
Location:  40.22°N, 116.2°E
Report Text: ZBAA 231300Z 09001MPS 2700 R01/0900UR36R/P2000NR36L/1000V1600N BR BCFG NSC 01/00 Q1027 BECMG TL1420 3500
Loading
Personal Weather Stations






























Interactive Weather Map New forecast layout! Learn more

10-Day Weather Forecast

Advertisements
Track Severe Weather on mobile